Time;durP1;ratioP1;P1;durP2;ratioP2;P2;SDS_P1;SDS_P2;PMS_P1;PMS_P2;Temp;Humidity;BMP_temperature;BMP_pressure;BME280_temperature;BME280_humidity;BME280_pressure;Samples;Min_cycle;Max_cycle;Signal;HPM_P1;HPM_P2
2022/10/05 00:00:21;;;;;;;10.45;6.50;;;15.40;99.90;;;;;;5112039;28;20138;-61
2022/10/05 00:02:52;;;;;;;10.98;5.95;;;15.40;99.90;;;;;;5093573;28;20040;-61
2022/10/05 00:05:24;;;;;;;9.70;6.45;;;15.40;99.90;;;;;;5111850;28;20046;-62
2022/10/05 00:07:51;;;;;;;8.60;6.38;;;15.40;99.90;;;;;;5110820;28;20158;-62
2022/10/05 00:10:19;;;;;;;8.98;6.53;;;15.40;99.90;;;;;;5110558;28;20470;-62
2022/10/05 00:12:46;;;;;;;10.52;5.63;;;15.40;99.90;;;;;;5109741;28;20036;-62
2022/10/05 00:15:15;;;;;;;8.30;5.93;;;15.40;99.90;;;;;;5109517;28;20126;-62
2022/10/05 00:17:41;;;;;;;11.63;5.93;;;15.40;99.90;;;;;;5110725;28;20036;-62
2022/10/05 00:20:16;;;;;;;11.30;5.32;;;15.40;99.90;;;;;;5110717;28;20393;-62
2022/10/05 00:22:41;;;;;;;13.10;6.00;;;15.40;99.90;;;;;;5111631;28;20646;-61
2022/10/05 00:25:13;;;;;;;9.30;6.22;;;15.40;99.90;;;;;;5110199;28;20050;-61
2022/10/05 00:27:40;;;;;;;9.80;5.72;;;15.30;99.90;;;;;;5111772;28;20132;-62
2022/10/05 00:30:15;;;;;;;11.43;6.50;;;15.30;99.90;;;;;;5110500;28;20039;-61
2022/10/05 00:32:43;;;;;;;9.20;5.35;;;15.30;99.90;;;;;;5110259;28;20517;-62
2022/10/05 00:35:10;;;;;;;10.35;5.10;;;15.30;99.90;;;;;;5110299;28;20054;-62
2022/10/05 00:37:36;;;;;;;9.43;5.50;;;15.30;99.90;;;;;;5093317;28;20046;-62
2022/10/05 00:40:15;;;;;;;10.20;5.60;;;15.20;99.90;;;;;;5111455;28;20040;-62
2022/10/05 00:42:47;;;;;;;6.90;5.10;;;15.20;99.90;;;;;;5110151;28;20044;-62
2022/10/05 00:45:21;;;;;;;7.95;5.82;;;15.20;99.90;;;;;;5110479;28;20075;-61
2022/10/05 00:48:02;;;;;;;10.13;5.47;;;15.20;99.90;;;;;;5110384;28;20040;-62
2022/10/05 00:50:50;;;;;;;9.35;5.50;;;15.20;99.90;;;;;;5110104;28;20044;-64
2022/10/05 00:53:23;;;;;;;11.23;5.57;;;15.20;99.90;;;;;;5111343;28;20071;-61
2022/10/05 00:56:09;;;;;;;8.68;5.90;;;15.20;99.90;;;;;;5093021;28;20044;-61
2022/10/05 00:59:04;;;;;;;9.60;6.15;;;15.20;99.90;;;;;;5058890;28;20053;-62
2022/10/05 01:01:48;;;;;;;10.52;7.25;;;15.20;99.90;;;;;;5093007;28;20042;-61
2022/10/05 01:04:17;;;;;;;11.13;6.13;;;15.10;99.90;;;;;;5113751;28;20139;-61
2022/10/05 01:07:04;;;;;;;9.00;6.43;;;15.10;99.90;;;;;;5113973;28;20036;-62
2022/10/05 01:09:45;;;;;;;9.45;6.43;;;15.20;99.90;;;;;;5113930;28;20047;-62
2022/10/05 01:12:43;;;;;;;9.05;6.18;;;15.10;99.90;;;;;;5113904;28;20593;-60
2022/10/05 01:15:20;;;;;;;9.88;6.03;;;15.10;99.90;;;;;;5112884;28;20079;-62
2022/10/05 01:17:52;;;;;;;12.25;6.80;;;15.10;99.90;;;;;;5113874;28;20113;-62
2022/10/05 01:20:36;;;;;;;11.75;7.38;;;15.10;99.90;;;;;;5113928;28;20235;-62
2022/10/05 01:23:35;;;;;;;10.35;6.80;;;15.10;99.90;;;;;;5113632;28;20043;-62
2022/10/05 01:26:22;;;;;;;11.07;6.95;;;15.10;99.90;;;;;;5113459;28;20047;-61
2022/10/05 01:29:24;;;;;;;14.10;7.78;;;15.10;99.90;;;;;;5114848;28;20131;-62
2022/10/05 01:31:58;;;;;;;12.23;7.90;;;15.20;99.90;;;;;;5111682;28;20047;-62
2022/10/05 01:34:24;;;;;;;12.38;7.95;;;15.10;99.90;;;;;;5113482;28;20039;-62
2022/10/05 01:37:23;;;;;;;12.27;8.05;;;15.20;99.90;;;;;;5114556;28;20050;-62
2022/10/05 01:40:30;;;;;;;14.38;8.60;;;15.10;99.90;;;;;;5082105;28;20478;-62
2022/10/05 01:43:28;;;;;;;10.95;8.20;;;15.10;99.90;;;;;;5111294;28;20043;-63
2022/10/05 01:46:00;;;;;;;11.10;7.95;;;15.10;99.90;;;;;;5096320;28;20047;-62
2022/10/05 01:48:50;;;;;;;10.82;7.40;;;15.10;99.90;;;;;;5113265;28;20043;-61
2022/10/05 01:52:00;;;;;;;12.70;6.88;;;15.10;99.90;;;;;;5114510;28;20031;-61
2022/10/05 01:54:48;;;;;;;10.32;7.13;;;15.10;99.90;;;;;;5114419;28;20074;-61
2022/10/05 01:57:29;;;;;;;13.98;7.30;;;15.10;99.90;;;;;;5113334;28;20047;-62
2022/10/05 02:00:10;;;;;;;14.43;7.50;;;15.10;99.90;;;;;;5112928;28;20035;-61
2022/10/05 02:02:44;;;;;;;12.32;8.20;;;15.10;99.90;;;;;;5113241;28;20046;-62
2022/10/05 02:05:20;;;;;;;10.65;7.38;;;15.10;99.90;;;;;;5113135;28;20035;-62
2022/10/05 02:08:00;;;;;;;11.93;7.35;;;15.10;99.90;;;;;;5114273;28;20078;-62
2022/10/05 02:10:29;;;;;;;;;;;15.10;99.90;;;;;;5096336;28;20048;-62
2022/10/05 02:13:03;;;;;;;11.85;6.88;;;15.10;99.90;;;;;;5110759;28;20389;-62
2022/10/05 02:15:39;;;;;;;10.77;6.45;;;15.10;99.90;;;;;;5112395;28;20046;-61
2022/10/05 02:18:10;;;;;;;11.75;5.90;;;15.10;99.90;;;;;;5112946;28;20393;-62
2022/10/05 02:20:39;;;;;;;8.68;6.07;;;15.10;99.90;;;;;;5112659;28;20130;-62
2022/10/05 02:23:11;;;;;;;12.65;6.63;;;15.10;99.90;;;;;;5095872;28;20063;-62
2022/10/05 02:25:41;;;;;;;8.63;6.38;;;15.20;99.90;;;;;;5112416;28;20640;-62
2022/10/05 02:28:13;;;;;;;11.38;5.82;;;15.10;99.90;;;;;;5113998;28;20070;-62
2022/10/05 02:30:57;;;;;;;11.43;5.78;;;15.20;99.90;;;;;;5113823;28;20090;-62
2022/10/05 02:33:28;;;;;;;8.68;5.80;;;15.20;99.90;;;;;;5112675;28;20044;-62
2022/10/05 02:36:00;;;;;;;10.30;5.80;;;15.20;99.90;;;;;;5112654;28;20491;-62
2022/10/05 02:38:42;;;;;;;10.27;6.10;;;15.20;99.90;;;;;;5121260;27;20039;-62
2022/10/05 02:41:18;;;;;;;11.02;5.82;;;15.20;99.90;;;;;;5133114;27;20115;-62
2022/10/05 02:44:10;;;;;;;8.13;4.90;;;15.20;99.90;;;;;;5131787;27;20487;-62
2022/10/05 02:46:49;;;;;;;9.02;5.72;;;15.20;99.90;;;;;;5132554;27;20084;-62
2022/10/05 02:50:03;;;;;;;6.00;4.57;;;15.20;99.90;;;;;;5133878;27;20027;-61
2022/10/05 02:52:47;;;;;;;8.35;5.00;;;15.20;99.90;;;;;;5059885;27;20037;-62
2022/10/05 02:55:15;;;;;;;6.20;4.72;;;15.20;99.90;;;;;;5132500;27;20510;-62
2022/10/05 02:58:10;;;;;;;7.70;4.68;;;15.20;99.90;;;;;;5115647;27;20043;-61
2022/10/05 03:00:44;;;;;;;9.55;5.50;;;15.20;99.90;;;;;;5124594;27;20059;-62
2022/10/05 03:03:33;;;;;;;9.52;5.75;;;15.20;99.90;;;;;;5132610;27;20669;-62
2022/10/05 03:06:09;;;;;;;7.63;4.35;;;15.20;99.90;;;;;;5132261;27;20099;-63
2022/10/05 03:09:01;;;;;;;6.32;4.75;;;15.20;99.90;;;;;;5133578;27;20483;-62
2022/10/05 03:11:52;;;;;;;9.40;4.80;;;15.20;99.90;;;;;;5131644;27;20414;-61
2022/10/05 03:14:31;;;;;;;9.07;5.00;;;15.20;99.90;;;;;;5112958;27;20093;-62
2022/10/05 03:17:17;;;;;;;8.32;4.72;;;15.10;99.90;;;;;;5132268;27;20047;-62
2022/10/05 03:19:59;;;;;;;7.55;4.25;;;15.10;99.90;;;;;;5132270;27;20038;-62
2022/10/05 03:22:43;;;;;;;6.97;4.30;;;15.10;99.90;;;;;;5132201;27;20047;-62
2022/10/05 03:25:37;;;;;;;6.25;3.85;;;15.10;99.90;;;;;;5133110;27;20171;-62
2022/10/05 03:28:21;;;;;;;7.63;4.70;;;15.10;99.90;;;;;;5131620;27;20146;-62
2022/10/05 03:30:54;;;;;;;8.32;4.95;;;15.10;99.90;;;;;;5133226;27;20039;-61
2022/10/05 03:33:45;;;;;;;5.82;4.47;;;15.10;99.90;;;;;;5131945;27;20513;-63
2022/10/05 03:36:40;;;;;;;7.38;4.38;;;15.10;99.90;;;;;;5114595;27;20099;-62
2022/10/05 03:39:14;;;;;;;7.53;4.70;;;15.10;99.90;;;;;;5133029;27;20089;-62
2022/10/05 03:41:48;;;;;;;6.32;4.45;;;15.10;99.90;;;;;;5131613;27;20066;-61
2022/10/05 03:44:14;;;;;;;8.35;4.50;;;15.10;99.90;;;;;;5130581;27;20039;-63
2022/10/05 03:47:08;;;;;;;7.50;5.32;;;15.10;99.90;;;;;;5131651;27;20042;-62
2022/10/05 03:49:48;;;;;;;7.38;4.72;;;15.10;99.90;;;;;;5131577;27;20600;-62
2022/10/05 03:52:23;;;;;;;6.95;4.85;;;15.10;99.90;;;;;;5131411;27;20118;-62
2022/10/05 03:54:59;;;;;;;7.07;4.78;;;15.10;99.90;;;;;;5131585;27;20043;-61
2022/10/05 03:57:27;;;;;;;7.32;4.97;;;15.10;99.90;;;;;;5114548;27;20043;-62
2022/10/05 04:00:03;;;;;;;8.93;5.22;;;15.10;99.90;;;;;;5131357;27;20047;-62
2022/10/05 04:02:50;;;;;;;13.88;6.18;;;15.10;99.90;;;;;;5132584;27;20042;-61
2022/10/05 04:05:23;;;;;;;11.30;5.45;;;15.00;99.90;;;;;;5132687;27;20688;-62
2022/10/05 04:07:55;;;;;;;8.88;5.55;;;15.00;99.90;;;;;;5131549;27;20038;-62
2022/10/05 04:10:28;;;;;;;8.20;6.20;;;15.00;99.90;;;;;;5131386;27;20034;-62
2022/10/05 04:13:19;;;;;;;9.32;6.38;;;15.00;99.90;;;;;;5129678;27;20122;-61
2022/10/05 04:15:56;;;;;;;12.07;6.60;;;15.00;99.90;;;;;;5114065;27;20053;-61
2022/10/05 04:18:31;;;;;;;11.30;6.60;;;15.00;99.90;;;;;;5131050;27;20051;-62
2022/10/05 04:21:10;;;;;;;9.23;6.30;;;15.00;99.90;;;;;;5130973;27;20035;-63
2022/10/05 04:23:52;;;;;;;10.25;6.70;;;14.90;99.90;;;;;;5131041;27;20039;-62
2022/10/05 04:26:24;;;;;;;11.38;6.57;;;14.90;99.90;;;;;;5130710;27;20533;-61
2022/10/05 04:28:50;;;;;;;11.20;7.32;;;14.90;99.90;;;;;;5132361;27;20040;-62
2022/10/05 04:31:30;;;;;;;10.00;6.97;;;14.90;99.90;;;;;;5132245;27;20411;-60
2022/10/05 04:34:03;;;;;;;;;;;14.90;99.90;;;;;;5131654;28;20050;-62
2022/10/05 04:36:36;;;;;;;10.98;7.15;;;14.90;99.90;;;;;;5132109;27;20378;-63
2022/10/05 04:39:28;;;;;;;11.02;6.93;;;14.90;99.90;;;;;;5131932;27;20187;-61
2022/10/05 04:42:03;;;;;;;12.80;7.70;;;14.90;99.90;;;;;;5132254;28;20054;-62
2022/10/05 04:44:32;;;;;;;11.48;7.38;;;14.90;99.90;;;;;;5128817;28;20047;-62
2022/10/05 04:47:19;;;;;;;13.13;8.13;;;14.80;99.90;;;;;;5130536;28;20049;-64
2022/10/05 04:49:54;;;;;;;11.55;7.75;;;14.80;99.90;;;;;;5132172;28;20463;-61
2022/10/05 04:53:05;;;;;;;10.60;7.75;;;14.80;99.90;;;;;;5130693;28;20039;-61
2022/10/05 04:55:45;;;;;;;13.48;7.65;;;14.80;99.90;;;;;;5074903;28;20113;-60
2022/10/05 04:58:14;;;;;;;11.25;7.32;;;14.80;99.90;;;;;;5132137;27;20042;-62
2022/10/05 05:01:04;;;;;;;11.40;7.55;;;14.80;99.90;;;;;;5132003;28;20448;-62
2022/10/05 05:03:30;;;;;;;;;;;14.80;99.90;;;;;;5131034;28;20040;-62
2022/10/05 05:06:16;;;;;;;11.88;7.40;;;14.80;99.90;;;;;;5132078;27;19927;-63
2022/10/05 05:08:56;;;;;;;12.23;6.70;;;14.80;99.90;;;;;;5131937;28;20439;-62
2022/10/05 05:11:25;;;;;;;;;;;14.80;99.90;;;;;;5131058;28;20058;-63
2022/10/05 05:14:34;;;;;;;10.55;7.35;;;14.80;99.90;;;;;;5129628;27;19959;-62
2022/10/05 05:17:32;;;;;;;12.32;7.55;;;14.80;99.90;;;;;;5130348;28;20058;-62
2022/10/05 05:20:28;;;;;;;10.48;7.30;;;14.80;99.90;;;;;;5130394;28;20075;-62
2022/10/05 05:23:14;;;;;;;11.95;7.55;;;14.80;99.90;;;;;;5131600;28;20475;-63
2022/10/05 05:26:06;;;;;;;14.30;7.22;;;14.80;99.90;;;;;;5131581;28;20134;-61
2022/10/05 05:29:12;;;;;;;11.25;7.30;;;14.80;99.90;;;;;;5130251;28;20092;-63
2022/10/05 05:31:59;;;;;;;9.73;6.60;;;14.80;99.90;;;;;;5099555;27;20099;-63
2022/10/05 05:34:31;;;;;;;9.43;6.68;;;14.80;99.90;;;;;;5130367;28;20078;-63
2022/10/05 05:37:06;;;;;;;12.27;7.07;;;14.80;99.90;;;;;;5130234;28;20050;-62
2022/10/05 05:39:49;;;;;;;10.35;6.60;;;14.80;99.90;;;;;;5130266;28;20041;-62
2022/10/05 05:42:19;;;;;;;11.77;7.22;;;14.70;99.90;;;;;;5131637;28;20580;-63
2022/10/05 05:44:54;;;;;;;9.40;6.93;;;14.80;99.90;;;;;;5129196;27;20047;-62
2022/10/05 05:47:36;;;;;;;13.30;8.10;;;14.70;99.90;;;;;;5130101;28;20126;-62
2022/10/05 05:50:24;;;;;;;9.20;6.68;;;14.70;99.90;;;;;;5132919;27;20039;-62
2022/10/05 05:53:12;;;;;;;13.43;6.80;;;14.70;99.90;;;;;;5135179;27;20041;-62
2022/10/05 05:55:49;;;;;;;9.65;6.75;;;14.70;99.90;;;;;;5134965;27;20055;-63
2022/10/05 05:58:23;;;;;;;10.57;6.90;;;14.70;99.90;;;;;;5133757;27;20171;-63
2022/10/05 06:01:31;;;;;;;9.60;6.57;;;14.70;99.90;;;;;;5116532;27;20039;-63
2022/10/05 06:04:28;;;;;;;14.07;7.45;;;14.70;99.90;;;;;;5067616;27;20084;-62
2022/10/05 06:06:57;;;;;;;10.80;7.40;;;14.70;99.90;;;;;;5120129;27;20050;-61
2022/10/05 06:09:37;;;;;;;9.13;6.90;;;14.70;99.90;;;;;;5134983;27;20542;-62
2022/10/05 06:12:18;;;;;;;10.98;7.13;;;14.70;99.90;;;;;;5134889;27;20504;-61
2022/10/05 06:14:53;;;;;;;12.85;8.10;;;14.70;99.90;;;;;;5132615;27;20039;-62
2022/10/05 06:17:27;;;;;;;11.98;5.88;;;14.70;99.90;;;;;;5133355;27;20123;-63
2022/10/05 06:19:59;;;;;;;10.30;6.63;;;14.70;99.90;;;;;;5134757;27;20043;-62
2022/10/05 06:22:31;;;;;;;8.52;6.38;;;14.70;99.90;;;;;;5134596;27;20039;-62
2022/10/05 06:25:09;;;;;;;9.82;6.82;;;14.70;99.90;;;;;;5132868;27;20047;-64
2022/10/05 06:28:14;;;;;;;9.13;6.38;;;14.70;99.90;;;;;;5115926;27;20050;-63
2022/10/05 06:31:11;;;;;;;9.27;6.03;;;14.70;99.90;;;;;;5115779;27;20155;-63
2022/10/05 06:33:50;;;;;;;7.72;6.13;;;14.70;99.90;;;;;;5115720;27;20467;-63
2022/10/05 06:36:34;;;;;;;8.75;6.40;;;14.80;99.90;;;;;;5132639;27;20122;-63
2022/10/05 06:39:03;;;;;;;11.10;6.10;;;14.80;99.90;;;;;;5132888;27;20082;-63
2022/10/05 06:41:44;;;;;;;7.65;5.47;;;14.80;99.90;;;;;;5115650;27;20133;-62
2022/10/05 06:44:22;;;;;;;9.38;5.75;;;14.80;99.90;;;;;;5130484;27;20055;-62
2022/10/05 06:47:15;;;;;;;8.50;5.35;;;14.80;99.90;;;;;;5132684;27;20047;-62
2022/10/05 06:50:03;;;;;;;7.28;5.00;;;14.80;99.90;;;;;;5132744;27;20100;-64
2022/10/05 06:52:34;;;;;;;7.43;5.00;;;14.80;99.90;;;;;;5132618;27;20043;-63
2022/10/05 06:55:25;;;;;;;11.07;4.97;;;14.80;99.90;;;;;;5132554;27;20046;-62
2022/10/05 06:58:03;;;;;;;8.07;4.43;;;14.80;99.90;;;;;;5132794;27;20043;-61
2022/10/05 07:00:39;;;;;;;6.82;4.85;;;14.90;99.90;;;;;;5115086;27;20042;-62
2022/10/05 07:03:26;;;;;;;7.22;4.47;;;14.90;99.90;;;;;;5115264;27;20129;-61
2022/10/05 07:05:57;;;;;;;6.38;4.85;;;14.90;99.90;;;;;;5133754;27;20387;-62
2022/10/05 07:08:26;;;;;;;7.47;4.35;;;14.90;99.90;;;;;;5132335;27;20031;-62
2022/10/05 07:11:03;;;;;;;7.63;4.85;;;14.90;99.90;;;;;;5133465;27;20046;-61
2022/10/05 07:13:33;;;;;;;6.13;4.20;;;14.90;99.90;;;;;;5112912;27;20043;-62
2022/10/05 07:16:32;;;;;;;7.38;4.03;;;14.90;99.90;;;;;;5132154;27;20051;-62
2022/10/05 07:19:08;;;;;;;6.45;3.97;;;14.90;99.90;;;;;;5133330;27;20598;-62
2022/10/05 07:22:19;;;;;;;9.65;4.40;;;14.90;99.90;;;;;;5133525;27;20043;-63
2022/10/05 07:25:09;;;;;;;8.45;3.88;;;14.90;99.90;;;;;;5126671;27;20061;-62
2022/10/05 07:28:02;;;;;;;5.38;3.28;;;14.90;99.90;;;;;;5121246;27;20059;-62
2022/10/05 07:30:33;;;;;;;5.55;4.28;;;14.90;99.90;;;;;;5131952;27;20035;-63
2022/10/05 07:33:44;;;;;;;5.53;2.97;;;14.90;99.90;;;;;;5114642;27;20100;-62
2022/10/05 07:39:21;;;;;;;5.80;2.67;;;14.90;99.90;;;;;;5131709;27;20054;-64
2022/10/05 07:42:03;;;;;;;4.20;2.45;;;14.90;99.90;;;;;;5132021;27;20078;-61
2022/10/05 07:44:39;;;;;;;4.15;2.40;;;15.00;99.90;;;;;;5129615;27;20093;-63
2022/10/05 07:47:16;;;;;;;4.20;2.17;;;15.00;99.90;;;;;;5131559;27;20081;-62
2022/10/05 07:50:02;;;;;;;3.15;1.95;;;15.10;99.90;;;;;;5133028;27;20064;-63
2022/10/05 07:52:38;;;;;;;3.70;1.83;;;15.10;99.90;;;;;;5112367;28;20114;-62
2022/10/05 07:55:17;;;;;;;2.83;1.80;;;15.20;99.90;;;;;;5112172;28;20109;-63
2022/10/05 07:57:59;;;;;;;2.55;1.60;;;15.20;99.90;;;;;;5110968;28;20130;-62
2022/10/05 08:00:48;;;;;;;3.60;1.77;;;15.30;99.90;;;;;;5110832;28;20043;-61
2022/10/05 08:03:39;;;;;;;2.55;1.83;;;15.40;99.90;;;;;;5113884;27;20157;-61
2022/10/05 08:06:11;;;;;;;2.17;1.58;;;15.40;99.90;;;;;;5110993;28;20039;-61
2022/10/05 08:08:49;;;;;;;1.83;1.33;;;15.50;99.90;;;;;;5112090;28;20027;-61
2022/10/05 08:11:25;;;;;;;2.80;1.65;;;15.50;99.90;;;;;;5093728;28;20076;-62
2022/10/05 08:13:59;;;;;;;1.85;1.20;;;15.50;99.90;;;;;;5109460;28;20036;-62
2022/10/05 08:16:29;;;;;;;2.20;1.40;;;15.60;99.90;;;;;;5110612;28;20041;-62
2022/10/05 08:19:05;;;;;;;2.70;1.70;;;15.60;99.90;;;;;;5128634;27;20126;-61
2022/10/05 08:21:38;;;;;;;2.20;1.38;;;15.70;99.90;;;;;;5132371;27;20050;-61
2022/10/05 08:24:13;;;;;;;2.63;1.45;;;15.70;99.90;;;;;;5131200;27;20051;-61
2022/10/05 08:27:01;;;;;;;2.83;1.38;;;15.80;99.90;;;;;;5131989;27;20138;-62
2022/10/05 08:29:49;;;;;;;3.97;1.70;;;15.70;99.90;;;;;;5130917;27;20459;-62
2022/10/05 08:32:33;;;;;;;2.65;1.88;;;15.80;99.90;;;;;;5131002;27;20470;-61
2022/10/05 08:35:17;;;;;;;4.32;2.03;;;15.90;99.90;;;;;;5130894;28;20054;-61
2022/10/05 08:37:45;;;;;;;3.70;2.10;;;15.90;99.90;;;;;;5130799;28;20490;-63
2022/10/05 08:40:48;;;;;;;4.05;2.70;;;15.90;99.90;;;;;;5128937;28;20047;-62
2022/10/05 08:43:53;;;;;;;4.90;2.63;;;15.90;99.90;;;;;;5092668;28;20197;-61
2022/10/05 08:46:34;;;;;;;3.95;3.00;;;16.00;99.90;;;;;;5124322;28;20081;-61
2022/10/05 08:49:22;;;;;;;4.22;3.05;;;16.00;99.90;;;;;;5131563;28;20050;-62
2022/10/05 08:52:12;;;;;;;4.32;3.15;;;16.00;99.90;;;;;;5132050;28;20031;-62
2022/10/05 08:55:09;;;;;;;5.10;3.88;;;16.00;99.90;;;;;;5131764;28;20071;-62
2022/10/05 08:57:43;;;;;;;4.55;3.30;;;16.00;99.90;;;;;;5107351;27;20070;-60
2022/10/05 09:00:19;;;;;;;4.80;3.67;;;16.00;99.90;;;;;;5131769;28;20054;-61
2022/10/05 09:03:39;;;;;;;7.20;4.18;;;16.10;99.90;;;;;;5133002;27;20038;-61
2022/10/05 09:06:13;;;;;;;7.40;4.15;;;16.10;99.90;;;;;;5032756;28;20041;-62
2022/10/05 09:09:06;;;;;;;6.57;3.55;;;16.20;99.90;;;;;;5120454;27;20542;-62
2022/10/05 09:11:44;;;;;;;4.38;3.20;;;16.20;99.90;;;;;;5131845;28;20075;-61
2022/10/05 09:14:24;;;;;;;5.18;3.17;;;16.20;99.90;;;;;;5112501;28;20046;-61
2022/10/05 09:17:15;;;;;;;4.33;3.07;;;16.30;99.90;;;;;;5114821;28;20129;-61
2022/10/05 09:19:52;;;;;;;5.82;3.00;;;16.40;99.90;;;;;;5114560;28;20111;-62
2022/10/05 09:22:34;;;;;;;6.65;3.20;;;16.50;99.90;;;;;;5131773;28;20051;-62
2022/10/05 09:25:25;;;;;;;5.93;3.13;;;16.50;99.90;;;;;;5132812;27;20046;-62
2022/10/05 09:28:10;;;;;;;5.32;3.47;;;16.60;99.90;;;;;;5136653;27;20039;-62
2022/10/05 09:30:51;;;;;;;5.85;3.83;;;16.60;99.90;;;;;;5131513;27;20043;-62
2022/10/05 09:33:52;;;;;;;4.50;3.20;;;16.50;99.90;;;;;;5134858;27;20047;-61
2022/10/05 09:36:20;;;;;;;5.28;3.45;;;16.50;99.90;;;;;;5136487;27;20043;-62
2022/10/05 09:38:54;;;;;;;5.22;3.30;;;16.50;99.90;;;;;;5136272;27;20047;-61
2022/10/05 09:41:41;;;;;;;5.65;3.38;;;16.40;99.90;;;;;;5117747;27;20043;-62
2022/10/05 09:44:50;;;;;;;6.50;3.90;;;16.50;99.90;;;;;;5133271;27;20078;-62
2022/10/05 09:47:47;;;;;;;6.13;3.70;;;16.50;99.90;;;;;;5134858;27;20043;-61
2022/10/05 09:50:50;;;;;;;5.38;3.35;;;16.50;99.90;;;;;;5136476;27;20036;-61
2022/10/05 09:53:45;;;;;;;4.68;3.55;;;16.50;99.90;;;;;;5112818;27;20043;-62
2022/10/05 09:56:33;;;;;;;6.03;4.07;;;16.50;99.90;;;;;;5135273;27;20494;-61
2022/10/05 09:59:33;;;;;;;5.88;3.70;;;16.50;99.90;;;;;;5135661;27;20158;-62
2022/10/05 10:02:08;;;;;;;8.00;3.40;;;16.50;99.90;;;;;;5134730;27;20540;-61
2022/10/05 10:05:10;;;;;;;5.65;3.58;;;16.50;99.90;;;;;;5136235;27;20043;-62
2022/10/05 10:07:54;;;;;;;6.10;3.80;;;16.50;99.90;;;;;;5087036;27;20058;-62
2022/10/05 10:10:53;;;;;;;10.73;4.10;;;16.50;99.90;;;;;;5135758;27;20497;-62
2022/10/05 10:14:01;;;;;;;4.63;3.70;;;16.50;99.90;;;;;;5137346;27;20853;-62
2022/10/05 10:16:56;;;;;;;5.80;3.63;;;16.50;99.90;;;;;;5089877;27;20049;-62
2022/10/05 10:19:52;;;;;;;6.93;3.65;;;16.50;99.90;;;;;;5131539;27;20035;-62
2022/10/05 10:22:39;;;;;;;5.47;3.42;;;16.40;99.90;;;;;;5134322;27;20040;-63
2022/10/05 10:25:18;;;;;;;6.72;4.57;;;16.40;99.90;;;;;;5133997;27;20031;-61
2022/10/05 10:28:11;;;;;;;6.28;3.80;;;16.40;99.90;;;;;;5134276;27;20051;-62
2022/10/05 10:30:59;;;;;;;5.93;3.72;;;16.40;99.90;;;;;;5134204;27;20356;-61
2022/10/05 10:34:15;;;;;;;4.75;4.03;;;16.40;99.90;;;;;;5134290;27;20043;-61
2022/10/05 10:36:59;;;;;;;4.40;3.42;;;16.40;99.90;;;;;;5090528;27;20058;-61
2022/10/05 10:39:33;;;;;;;6.07;3.70;;;16.40;99.90;;;;;;5116987;27;20039;-62
2022/10/05 10:42:16;;;;;;;5.35;3.55;;;16.40;99.90;;;;;;5135305;27;20689;-61
2022/10/05 10:44:55;;;;;;;5.00;3.97;;;16.40;99.90;;;;;;5131961;27;20363;-61
2022/10/05 10:47:26;;;;;;;4.25;3.38;;;16.40;99.90;;;;;;5133888;27;20043;-61
2022/10/05 10:50:14;;;;;;;7.65;3.92;;;16.40;99.90;;;;;;5134019;27;20043;-61
2022/10/05 10:52:52;;;;;;;6.38;4.00;;;16.40;99.90;;;;;;5133841;27;20459;-61
2022/10/05 10:55:28;;;;;;;6.32;4.35;;;16.40;99.90;;;;;;5134965;27;20039;-61
2022/10/05 10:58:22;;;;;;;7.28;4.68;;;16.40;99.90;;;;;;5134959;27;20127;-61
2022/10/05 11:01:04;;;;;;;4.65;3.55;;;16.40;99.90;;;;;;5133928;27;20514;-62
2022/10/05 11:03:32;;;;;;;8.02;3.38;;;16.40;99.90;;;;;;5134723;27;20165;-62
2022/10/05 11:06:19;;;;;;;4.80;3.40;;;16.40;99.90;;;;;;5132385;27;20613;-61
2022/10/05 11:09:13;;;;;;;4.63;2.83;;;16.40;99.90;;;;;;5133717;27;20061;-61
2022/10/05 11:11:57;;;;;;;6.28;3.17;;;16.40;99.90;;;;;;5133308;27;20042;-62
2022/10/05 11:14:23;;;;;;;6.05;3.95;;;16.40;99.90;;;;;;5131189;27;20047;-62
2022/10/05 11:17:01;;;;;;;6.10;3.72;;;16.40;99.90;;;;;;5134497;27;20107;-62
2022/10/05 11:20:04;;;;;;;9.30;4.63;;;16.40;99.90;;;;;;5131998;27;20387;-62
2022/10/05 11:22:57;;;;;;;7.93;5.53;;;16.40;99.90;;;;;;5104969;27;20043;-62
2022/10/05 11:25:57;;;;;;;7.93;5.90;;;16.40;99.90;;;;;;5112377;27;20060;-62
2022/10/05 11:28:47;;;;;;;7.43;5.70;;;16.40;99.90;;;;;;5127599;27;20522;-62
2022/10/05 11:31:46;;;;;;;7.72;4.65;;;16.40;99.90;;;;;;5132854;27;20043;-61
2022/10/05 11:34:27;;;;;;;5.10;3.05;;;16.40;99.90;;;;;;5132190;27;20047;-61
2022/10/05 11:37:02;;;;;;;6.25;3.10;;;16.40;99.90;;;;;;5132828;27;20131;-61
2022/10/05 11:39:53;;;;;;;5.32;3.00;;;16.40;99.90;;;;;;5134326;27;20131;-61
2022/10/05 11:42:40;;;;;;;4.50;2.50;;;16.40;99.90;;;;;;5133982;27;20046;-61
2022/10/05 11:45:25;;;;;;;6.10;2.47;;;16.40;99.90;;;;;;5130415;27;20043;-61
2022/10/05 11:48:22;;;;;;;4.07;2.47;;;16.40;99.90;;;;;;5131287;27;20070;-61
2022/10/05 11:51:18;;;;;;;6.03;2.83;;;16.40;99.90;;;;;;5133879;27;20035;-61
2022/10/05 11:54:04;;;;;;;7.13;3.95;;;16.50;99.90;;;;;;5132482;27;20500;-61
2022/10/05 11:56:57;;;;;;;7.07;3.15;;;16.50;99.90;;;;;;5132754;27;20138;-61
2022/10/05 11:59:35;;;;;;;3.90;2.80;;;16.50;99.90;;;;;;5133676;27;20043;-62
2022/10/05 12:02:34;;;;;;;5.10;3.38;;;16.50;99.90;;;;;;5133629;27;20074;-61
2022/10/05 12:05:22;;;;;;;5.30;3.45;;;16.50;99.90;;;;;;5132528;27;20065;-62
2022/10/05 12:08:21;;;;;;;7.57;3.72;;;16.50;99.90;;;;;;5131725;27;20539;-61
2022/10/05 12:11:17;;;;;;;6.13;3.35;;;16.50;99.90;;;;;;5132731;27;20047;-61
2022/10/05 12:13:57;;;;;;;7.18;3.65;;;16.50;99.90;;;;;;5130237;27;20043;-61
2022/10/05 12:16:49;;;;;;;4.80;3.60;;;16.50;99.90;;;;;;5111997;27;20043;-62
2022/10/05 12:19:40;;;;;;;6.68;3.15;;;16.50;99.90;;;;;;5132583;27;20603;-62
2022/10/05 12:22:20;;;;;;;3.47;2.47;;;16.50;99.90;;;;;;5126528;27;20510;-61
2022/10/05 12:25:17;;;;;;;4.22;3.13;;;16.50;99.90;;;;;;5132517;27;20050;-61
2022/10/05 12:27:51;;;;;;;6.18;3.00;;;16.50;99.90;;;;;;5132481;27;20047;-62
2022/10/05 12:30:31;;;;;;;4.93;3.22;;;16.50;99.90;;;;;;5109567;28;20047;-62
2022/10/05 12:33:13;;;;;;;5.13;2.63;;;16.50;99.90;;;;;;5132507;27;20035;-60
2022/10/05 12:35:57;;;;;;;4.30;3.05;;;16.50;99.90;;;;;;5132415;27;20042;-62
2022/10/05 12:38:36;;;;;;;4.80;2.90;;;16.50;99.90;;;;;;5131235;27;20039;-61
2022/10/05 12:41:24;;;;;;;8.35;3.50;;;16.50;99.90;;;;;;5132238;28;20039;-61
2022/10/05 12:43:58;;;;;;;7.05;3.80;;;16.50;99.90;;;;;;5129962;27;20035;-62
2022/10/05 12:46:58;;;;;;;7.88;3.83;;;16.60;99.90;;;;;;5132162;27;20084;-61
2022/10/05 12:49:37;;;;;;;;;;;16.60;99.90;;;;;;5132801;27;20035;-62
2022/10/05 12:52:19;;;;;;;5.20;3.67;;;16.60;99.90;;;;;;5132170;28;19960;-61
2022/10/05 12:55:00;;;;;;;6.50;4.15;;;16.60;99.90;;;;;;5131263;28;20058;-61
2022/10/05 12:57:30;;;;;;;;;;;16.60;99.90;;;;;;5131516;28;20036;-61
2022/10/05 13:00:20;;;;;;;4.88;3.97;;;16.60;99.90;;;;;;5135664;27;19922;-62
2022/10/05 13:03:11;;;;;;;9.13;4.68;;;16.60;99.90;;;;;;5136249;27;20095;-61
2022/10/05 13:06:03;;;;;;;6.43;4.00;;;16.60;99.90;;;;;;5117841;27;20084;-61
2022/10/05 13:08:51;;;;;;;6.95;4.40;;;16.60;99.90;;;;;;5135144;27;20524;-62
2022/10/05 13:11:30;;;;;;;4.95;3.60;;;16.60;99.90;;;;;;5133700;27;20035;-62
2022/10/05 13:14:12;;;;;;;;;;;16.70;99.90;;;;;;5133070;27;20042;-61
2022/10/05 13:17:02;;;;;;;7.45;3.83;;;16.70;99.90;;;;;;5136079;27;19922;-62
2022/10/05 13:19:45;;;;;;;5.72;3.67;;;16.70;99.90;;;;;;5133910;27;20047;-62
2022/10/05 13:22:42;;;;;;;3.60;3.10;;;16.70;99.90;;;;;;5134101;27;20138;-61
2022/10/05 13:25:36;;;;;;;6.18;3.47;;;16.70;99.90;;;;;;5135029;27;20066;-61
2022/10/05 13:28:43;;;;;;;7.07;3.90;;;16.70;99.90;;;;;;5117227;27;20047;-62
2022/10/05 13:31:25;;;;;;;4.80;3.50;;;16.70;99.90;;;;;;5034435;28;20639;-62
2022/10/05 13:34:21;;;;;;;4.90;3.35;;;16.80;99.90;;;;;;5121793;27;20039;-62
2022/10/05 13:37:11;;;;;;;4.55;3.20;;;16.80;99.90;;;;;;5096442;28;20070;-63
2022/10/05 13:40:11;;;;;;;4.60;3.10;;;16.80;99.90;;;;;;5115481;28;20043;-62
2022/10/05 13:42:47;;;;;;;5.00;3.25;;;16.90;99.90;;;;;;5129929;27;20042;-62
2022/10/05 13:45:41;;;;;;;7.05;2.90;;;16.90;99.90;;;;;;5153823;27;20390;-63
2022/10/05 13:48:37;;;;;;;5.50;3.00;;;17.00;99.90;;;;;;5151848;27;20038;-63
2022/10/05 13:51:35;;;;;;;5.28;3.10;;;17.00;99.90;;;;;;5114207;28;20039;-62
2022/10/05 13:54:10;;;;;;;7.53;3.15;;;17.10;99.90;;;;;;5010943;27;20058;-63
2022/10/05 13:56:41;;;;;;;7.63;2.85;;;17.10;99.90;;;;;;5113905;28;20057;-62
2022/10/05 13:59:36;;;;;;;5.15;2.80;;;17.10;99.90;;;;;;5115176;28;20111;-62
2022/10/05 14:02:14;;;;;;;8.00;3.28;;;17.10;99.90;;;;;;5114223;28;20094;-61
2022/10/05 14:04:49;;;;;;;6.57;3.35;;;17.10;99.90;;;;;;5115256;28;20097;-63
2022/10/05 14:07:29;;;;;;;5.90;3.20;;;17.10;99.90;;;;;;5114029;28;20055;-63
2022/10/05 14:09:57;;;;;;;6.47;3.22;;;17.10;99.90;;;;;;5114550;28;20096;-62